sensor_id;sensor_type;location;lat;lon;timestamp;P1;durP1;ratioP1;P2;durP2;ratioP2
2638;SDS011;1329;51.384;7.122;2022-07-23T00:00:27;12.82;;;11.52;;
2638;SDS011;1329;51.384;7.122;2022-07-23T00:02:54;18.23;;;10.93;;
2638;SDS011;1329;51.384;7.122;2022-07-23T00:05:22;11.85;;;10.73;;
2638;SDS011;1329;51.384;7.122;2022-07-23T00:07:51;12.38;;;11.13;;
2638;SDS011;1329;51.384;7.122;2022-07-23T00:10:19;12.93;;;11.70;;
2638;SDS011;1329;51.384;7.122;2022-07-23T00:12:46;12.82;;;11.52;;
2638;SDS011;1329;51.384;7.122;2022-07-23T00:15:13;12.70;;;11.48;;
2638;SDS011;1329;51.384;7.122;2022-07-23T00:17:42;12.60;;;11.50;;
2638;SDS011;1329;51.384;7.122;2022-07-23T00:20:10;13.27;;;11.43;;
2638;SDS011;1329;51.384;7.122;2022-07-23T00:22:45;12.15;;;10.95;;
2638;SDS011;1329;51.384;7.122;2022-07-23T00:25:13;14.75;;;11.13;;
2638;SDS011;1329;51.384;7.122;2022-07-23T00:27:40;13.70;;;11.73;;
2638;SDS011;1329;51.384;7.122;2022-07-23T00:30:10;21.98;;;12.30;;
2638;SDS011;1329;51.384;7.122;2022-07-23T00:32:46;25.00;;;11.82;;
2638;SDS011;1329;51.384;7.122;2022-07-23T00:35:14;11.93;;;10.80;;
2638;SDS011;1329;51.384;7.122;2022-07-23T00:37:42;13.98;;;10.65;;
2638;SDS011;1329;51.384;7.122;2022-07-23T00:40:11;12.63;;;11.32;;
2638;SDS011;1329;51.384;7.122;2022-07-23T00:42:39;12.50;;;10.82;;
2638;SDS011;1329;51.384;7.122;2022-07-23T00:45:07;19.23;;;11.05;;
2638;SDS011;1329;51.384;7.122;2022-07-23T00:47:35;16.90;;;11.77;;
2638;SDS011;1329;51.384;7.122;2022-07-23T00:50:05;22.95;;;11.68;;
2638;SDS011;1329;51.384;7.122;2022-07-23T00:52:34;14.35;;;12.65;;
2638;SDS011;1329;51.384;7.122;2022-07-23T00:55:04;13.43;;;12.13;;
2638;SDS011;1329;51.384;7.122;2022-07-23T00:57:33;15.65;;;12.85;;
2638;SDS011;1329;51.384;7.122;2022-07-23T01:00:00;20.80;;;13.20;;
2638;SDS011;1329;51.384;7.122;2022-07-23T01:02:28;15.55;;;13.20;;
2638;SDS011;1329;51.384;7.122;2022-07-23T01:04:55;23.65;;;12.68;;
2638;SDS011;1329;51.384;7.122;2022-07-23T01:07:24;21.33;;;13.02;;
2638;SDS011;1329;51.384;7.122;2022-07-23T01:09:51;20.33;;;13.73;;
2638;SDS011;1329;51.384;7.122;2022-07-23T01:12:22;40.38;;;14.13;;
2638;SDS011;1329;51.384;7.122;2022-07-23T01:14:53;15.48;;;13.02;;
2638;SDS011;1329;51.384;7.122;2022-07-23T01:17:21;16.55;;;13.13;;
2638;SDS011;1329;51.384;7.122;2022-07-23T01:19:48;15.68;;;12.98;;
2638;SDS011;1329;51.384;7.122;2022-07-23T01:22:16;14.65;;;13.07;;
2638;SDS011;1329;51.384;7.122;2022-07-23T01:24:47;19.65;;;14.00;;
2638;SDS011;1329;51.384;7.122;2022-07-23T01:27:14;20.20;;;13.70;;
2638;SDS011;1329;51.384;7.122;2022-07-23T01:29:42;25.63;;;15.13;;
2638;SDS011;1329;51.384;7.122;2022-07-23T01:32:10;31.48;;;15.55;;
2638;SDS011;1329;51.384;7.122;2022-07-23T01:34:37;20.35;;;15.13;;
2638;SDS011;1329;51.384;7.122;2022-07-23T01:37:05;16.02;;;13.82;;
2638;SDS011;1329;51.384;7.122;2022-07-23T01:39:33;15.98;;;13.82;;
2638;SDS011;1329;51.384;7.122;2022-07-23T01:42:03;15.85;;;14.23;;
2638;SDS011;1329;51.384;7.122;2022-07-23T01:44:31;16.50;;;14.63;;
2638;SDS011;1329;51.384;7.122;2022-07-23T01:46:58;16.30;;;14.55;;
2638;SDS011;1329;51.384;7.122;2022-07-23T01:49:26;15.38;;;13.77;;
2638;SDS011;1329;51.384;7.122;2022-07-23T01:51:56;19.00;;;13.10;;
2638;SDS011;1329;51.384;7.122;2022-07-23T01:54:26;15.07;;;13.57;;
2638;SDS011;1329;51.384;7.122;2022-07-23T01:56:55;16.35;;;14.63;;
2638;SDS011;1329;51.384;7.122;2022-07-23T01:59:24;15.88;;;14.18;;
2638;SDS011;1329;51.384;7.122;2022-07-23T02:01:52;16.58;;;14.80;;
2638;SDS011;1329;51.384;7.122;2022-07-23T02:04:20;16.13;;;14.52;;
2638;SDS011;1329;51.384;7.122;2022-07-23T02:06:50;18.15;;;14.82;;
2638;SDS011;1329;51.384;7.122;2022-07-23T02:09:17;19.42;;;16.27;;
2638;SDS011;1329;51.384;7.122;2022-07-23T02:11:45;18.02;;;15.82;;
2638;SDS011;1329;51.384;7.122;2022-07-23T02:14:12;17.42;;;15.73;;
2638;SDS011;1329;51.384;7.122;2022-07-23T02:16:41;16.65;;;14.95;;
2638;SDS011;1329;51.384;7.122;2022-07-23T02:19:11;16.90;;;15.18;;
2638;SDS011;1329;51.384;7.122;2022-07-23T02:21:38;16.45;;;14.70;;
2638;SDS011;1329;51.384;7.122;2022-07-23T02:24:05;16.20;;;14.50;;
2638;SDS011;1329;51.384;7.122;2022-07-23T02:26:33;15.65;;;13.43;;
2638;SDS011;1329;51.384;7.122;2022-07-23T02:29:00;15.45;;;13.82;;
2638;SDS011;1329;51.384;7.122;2022-07-23T02:31:28;16.38;;;14.73;;
2638;SDS011;1329;51.384;7.122;2022-07-23T02:33:57;17.08;;;15.20;;
2638;SDS011;1329;51.384;7.122;2022-07-23T02:36:24;16.48;;;14.73;;
2638;SDS011;1329;51.384;7.122;2022-07-23T02:38:51;15.48;;;13.82;;
2638;SDS011;1329;51.384;7.122;2022-07-23T02:41:19;15.93;;;14.32;;
2638;SDS011;1329;51.384;7.122;2022-07-23T02:43:46;16.95;;;14.20;;
2638;SDS011;1329;51.384;7.122;2022-07-23T02:46:16;15.82;;;14.27;;
2638;SDS011;1329;51.384;7.122;2022-07-23T02:48:44;15.60;;;13.98;;
2638;SDS011;1329;51.384;7.122;2022-07-23T02:51:12;15.07;;;13.60;;
2638;SDS011;1329;51.384;7.122;2022-07-23T02:53:40;14.90;;;13.40;;
2638;SDS011;1329;51.384;7.122;2022-07-23T02:56:07;14.88;;;13.38;;
2638;SDS011;1329;51.384;7.122;2022-07-23T02:58:34;34.30;;;14.90;;
2638;SDS011;1329;51.384;7.122;2022-07-23T03:01:02;17.77;;;13.70;;
2638;SDS011;1329;51.384;7.122;2022-07-23T03:03:29;44.85;;;13.25;;
2638;SDS011;1329;51.384;7.122;2022-07-23T03:05:56;19.85;;;13.45;;
2638;SDS011;1329;51.384;7.122;2022-07-23T03:08:27;14.68;;;12.88;;
2638;SDS011;1329;51.384;7.122;2022-07-23T03:10:55;19.15;;;14.20;;
2638;SDS011;1329;51.384;7.122;2022-07-23T03:13:22;14.75;;;13.15;;
2638;SDS011;1329;51.384;7.122;2022-07-23T03:15:49;14.43;;;13.00;;
2638;SDS011;1329;51.384;7.122;2022-07-23T03:18:17;20.80;;;12.95;;
2638;SDS011;1329;51.384;7.122;2022-07-23T03:20:46;27.75;;;12.98;;
2638;SDS011;1329;51.384;7.122;2022-07-23T03:23:15;30.83;;;12.52;;
2638;SDS011;1329;51.384;7.122;2022-07-23T03:25:45;14.32;;;12.82;;
2638;SDS011;1329;51.384;7.122;2022-07-23T03:28:13;21.90;;;13.05;;
2638;SDS011;1329;51.384;7.122;2022-07-23T03:30:47;25.58;;;13.07;;
2638;SDS011;1329;51.384;7.122;2022-07-23T03:33:15;15.63;;;12.75;;
2638;SDS011;1329;51.384;7.122;2022-07-23T03:35:45;16.00;;;11.57;;
2638;SDS011;1329;51.384;7.122;2022-07-23T03:38:13;13.57;;;11.52;;
2638;SDS011;1329;51.384;7.122;2022-07-23T03:40:41;36.70;;;13.30;;
2638;SDS011;1329;51.384;7.122;2022-07-23T03:43:10;22.60;;;12.23;;
2638;SDS011;1329;51.384;7.122;2022-07-23T03:45:37;43.70;;;13.43;;
2638;SDS011;1329;51.384;7.122;2022-07-23T03:48:07;28.92;;;12.55;;
2638;SDS011;1329;51.384;7.122;2022-07-23T03:50:34;29.02;;;12.68;;
2638;SDS011;1329;51.384;7.122;2022-07-23T03:53:02;40.08;;;13.15;;
2638;SDS011;1329;51.384;7.122;2022-07-23T03:55:30;25.25;;;12.00;;
2638;SDS011;1329;51.384;7.122;2022-07-23T03:57:57;25.00;;;11.95;;
2638;SDS011;1329;51.384;7.122;2022-07-23T04:00:26;23.67;;;12.80;;
2638;SDS011;1329;51.384;7.122;2022-07-23T04:02:54;28.75;;;13.45;;
2638;SDS011;1329;51.384;7.122;2022-07-23T04:05:22;25.95;;;13.45;;
2638;SDS011;1329;51.384;7.122;2022-07-23T04:07:52;42.95;;;14.68;;
2638;SDS011;1329;51.384;7.122;2022-07-23T04:10:19;21.65;;;13.52;;
2638;SDS011;1329;51.384;7.122;2022-07-23T04:12:47;15.60;;;13.68;;
2638;SDS011;1329;51.384;7.122;2022-07-23T04:15:20;21.73;;;13.20;;
2638;SDS011;1329;51.384;7.122;2022-07-23T04:17:48;28.02;;;13.70;;
2638;SDS011;1329;51.384;7.122;2022-07-23T04:20:16;22.92;;;14.18;;
2638;SDS011;1329;51.384;7.122;2022-07-23T04:22:44;20.58;;;12.63;;
2638;SDS011;1329;51.384;7.122;2022-07-23T04:25:11;24.83;;;13.07;;
2638;SDS011;1329;51.384;7.122;2022-07-23T04:27:41;17.67;;;12.55;;
2638;SDS011;1329;51.384;7.122;2022-07-23T04:30:11;26.17;;;12.70;;
2638;SDS011;1329;51.384;7.122;2022-07-23T04:32:38;16.55;;;12.30;;
2638;SDS011;1329;51.384;7.122;2022-07-23T04:35:08;15.43;;;12.38;;
2638;SDS011;1329;51.384;7.122;2022-07-23T04:37:35;21.85;;;12.27;;
2638;SDS011;1329;51.384;7.122;2022-07-23T04:40:03;18.55;;;12.15;;
2638;SDS011;1329;51.384;7.122;2022-07-23T04:42:31;16.98;;;11.25;;
2638;SDS011;1329;51.384;7.122;2022-07-23T04:44:59;19.42;;;13.10;;
2638;SDS011;1329;51.384;7.122;2022-07-23T04:47:26;20.73;;;12.07;;
2638;SDS011;1329;51.384;7.122;2022-07-23T04:49:57;19.92;;;12.35;;
2638;SDS011;1329;51.384;7.122;2022-07-23T04:52:28;13.50;;;12.00;;
2638;SDS011;1329;51.384;7.122;2022-07-23T04:54:55;13.18;;;11.88;;
2638;SDS011;1329;51.384;7.122;2022-07-23T04:57:23;14.98;;;13.40;;
2638;SDS011;1329;51.384;7.122;2022-07-23T04:59:50;14.93;;;12.93;;
2638;SDS011;1329;51.384;7.122;2022-07-23T05:02:18;14.57;;;13.10;;
2638;SDS011;1329;51.384;7.122;2022-07-23T05:04:49;15.43;;;13.82;;
2638;SDS011;1329;51.384;7.122;2022-07-23T05:07:17;14.85;;;13.32;;
2638;SDS011;1329;51.384;7.122;2022-07-23T05:09:45;15.40;;;13.82;;
2638;SDS011;1329;51.384;7.122;2022-07-23T05:12:13;16.17;;;14.15;;
2638;SDS011;1329;51.384;7.122;2022-07-23T05:14:40;16.20;;;14.52;;
2638;SDS011;1329;51.384;7.122;2022-07-23T05:17:10;15.73;;;14.15;;
2638;SDS011;1329;51.384;7.122;2022-07-23T05:19:37;16.15;;;14.55;;
2638;SDS011;1329;51.384;7.122;2022-07-23T05:22:07;16.98;;;15.27;;
2638;SDS011;1329;51.384;7.122;2022-07-23T05:24:38;18.02;;;16.17;;
2638;SDS011;1329;51.384;7.122;2022-07-23T05:27:07;17.92;;;16.23;;
2638;SDS011;1329;51.384;7.122;2022-07-23T05:29:34;18.08;;;16.17;;
2638;SDS011;1329;51.384;7.122;2022-07-23T05:32:02;19.85;;;17.10;;
2638;SDS011;1329;51.384;7.122;2022-07-23T05:34:30;19.30;;;17.27;;
2638;SDS011;1329;51.384;7.122;2022-07-23T05:36:58;18.95;;;16.95;;
2638;SDS011;1329;51.384;7.122;2022-07-23T05:39:26;19.33;;;17.30;;
2638;SDS011;1329;51.384;7.122;2022-07-23T05:41:53;20.55;;;17.70;;
2638;SDS011;1329;51.384;7.122;2022-07-23T05:44:22;19.52;;;17.48;;
2638;SDS011;1329;51.384;7.122;2022-07-23T05:46:52;21.08;;;18.88;;
2638;SDS011;1329;51.384;7.122;2022-07-23T05:49:28;19.42;;;17.42;;
2638;SDS011;1329;51.384;7.122;2022-07-23T05:51:55;19.83;;;17.67;;
2638;SDS011;1329;51.384;7.122;2022-07-23T05:54:24;22.00;;;18.73;;
2638;SDS011;1329;51.384;7.122;2022-07-23T05:56:51;19.15;;;17.15;;
2638;SDS011;1329;51.384;7.122;2022-07-23T05:59:18;20.23;;;18.10;;
2638;SDS011;1329;51.384;7.122;2022-07-23T06:01:50;21.45;;;19.13;;
2638;SDS011;1329;51.384;7.122;2022-07-23T06:04:18;22.02;;;19.70;;
2638;SDS011;1329;51.384;7.122;2022-07-23T06:06:45;22.95;;;19.27;;
2638;SDS011;1329;51.384;7.122;2022-07-23T06:09:13;22.02;;;19.73;;
2638;SDS011;1329;51.384;7.122;2022-07-23T06:11:43;22.42;;;20.08;;
2638;SDS011;1329;51.384;7.122;2022-07-23T06:14:10;23.00;;;20.50;;
2638;SDS011;1329;51.384;7.122;2022-07-23T06:16:38;23.90;;;21.42;;
2638;SDS011;1329;51.384;7.122;2022-07-23T06:19:06;24.85;;;22.17;;
2638;SDS011;1329;51.384;7.122;2022-07-23T06:21:34;23.75;;;21.25;;
2638;SDS011;1329;51.384;7.122;2022-07-23T06:24:01;22.17;;;19.92;;
2638;SDS011;1329;51.384;7.122;2022-07-23T06:26:32;23.67;;;21.17;;
2638;SDS011;1329;51.384;7.122;2022-07-23T06:29:00;23.60;;;20.05;;
2638;SDS011;1329;51.384;7.122;2022-07-23T06:31:27;22.83;;;20.50;;
2638;SDS011;1329;51.384;7.122;2022-07-23T06:33:55;23.52;;;21.10;;
2638;SDS011;1329;51.384;7.122;2022-07-23T06:36:24;23.58;;;20.60;;
2638;SDS011;1329;51.384;7.122;2022-07-23T06:38:52;23.30;;;20.90;;
2638;SDS011;1329;51.384;7.122;2022-07-23T06:41:19;23.73;;;21.33;;
2638;SDS011;1329;51.384;7.122;2022-07-23T06:43:47;24.98;;;22.48;;
2638;SDS011;1329;51.384;7.122;2022-07-23T06:46:16;24.50;;;21.92;;
2638;SDS011;1329;51.384;7.122;2022-07-23T06:48:44;25.38;;;22.08;;
2638;SDS011;1329;51.384;7.122;2022-07-23T06:51:11;25.80;;;21.77;;
2638;SDS011;1329;51.384;7.122;2022-07-23T06:53:40;24.38;;;21.77;;
2638;SDS011;1329;51.384;7.122;2022-07-23T06:56:08;25.52;;;22.77;;
2638;SDS011;1329;51.384;7.122;2022-07-23T06:58:35;25.17;;;22.50;;
2638;SDS011;1329;51.384;7.122;2022-07-23T07:01:02;24.73;;;22.23;;
2638;SDS011;1329;51.384;7.122;2022-07-23T07:03:30;25.92;;;23.15;;
2638;SDS011;1329;51.384;7.122;2022-07-23T07:05:57;27.25;;;24.38;;
2638;SDS011;1329;51.384;7.122;2022-07-23T07:08:25;28.45;;;25.55;;
2638;SDS011;1329;51.384;7.122;2022-07-23T07:10:54;29.83;;;26.42;;
2638;SDS011;1329;51.384;7.122;2022-07-23T07:13:21;27.75;;;24.85;;
2638;SDS011;1329;51.384;7.122;2022-07-23T07:15:48;27.90;;;24.33;;
2638;SDS011;1329;51.384;7.122;2022-07-23T07:18:16;27.63;;;24.83;;
2638;SDS011;1329;51.384;7.122;2022-07-23T07:20:43;27.42;;;24.65;;
2638;SDS011;1329;51.384;7.122;2022-07-23T07:23:11;27.27;;;24.38;;
2638;SDS011;1329;51.384;7.122;2022-07-23T07:25:39;26.50;;;23.63;;
2638;SDS011;1329;51.384;7.122;2022-07-23T07:28:08;26.15;;;23.45;;
2638;SDS011;1329;51.384;7.122;2022-07-23T07:30:35;26.75;;;24.10;;
2638;SDS011;1329;51.384;7.122;2022-07-23T07:33:05;26.80;;;24.00;;
2638;SDS011;1329;51.384;7.122;2022-07-23T07:35:33;25.80;;;23.20;;
2638;SDS011;1329;51.384;7.122;2022-07-23T07:38:00;24.67;;;22.23;;
2638;SDS011;1329;51.384;7.122;2022-07-23T07:40:27;26.90;;;24.15;;
2638;SDS011;1329;51.384;7.122;2022-07-23T07:42:55;26.30;;;23.60;;
2638;SDS011;1329;51.384;7.122;2022-07-23T07:45:24;28.73;;;25.83;;
2638;SDS011;1329;51.384;7.122;2022-07-23T07:47:52;27.02;;;24.27;;
2638;SDS011;1329;51.384;7.122;2022-07-23T07:50:20;28.60;;;25.80;;
2638;SDS011;1329;51.384;7.122;2022-07-23T07:52:48;29.23;;;26.35;;
2638;SDS011;1329;51.384;7.122;2022-07-23T07:55:15;29.25;;;26.48;;
2638;SDS011;1329;51.384;7.122;2022-07-23T07:57:43;29.88;;;26.92;;
2638;SDS011;1329;51.384;7.122;2022-07-23T08:00:12;29.65;;;26.75;;
2638;SDS011;1329;51.384;7.122;2022-07-23T08:02:43;28.02;;;25.23;;
2638;SDS011;1329;51.384;7.122;2022-07-23T08:05:14;28.88;;;26.05;;
2638;SDS011;1329;51.384;7.122;2022-07-23T08:07:45;30.73;;;27.83;;
2638;SDS011;1329;51.384;7.122;2022-07-23T08:10:13;29.33;;;26.63;;
2638;SDS011;1329;51.384;7.122;2022-07-23T08:12:41;27.52;;;25.13;;
2638;SDS011;1329;51.384;7.122;2022-07-23T08:15:11;28.83;;;26.23;;
2638;SDS011;1329;51.384;7.122;2022-07-23T08:17:40;26.75;;;24.45;;
2638;SDS011;1329;51.384;7.122;2022-07-23T08:20:11;26.33;;;23.95;;
2638;SDS011;1329;51.384;7.122;2022-07-23T08:22:46;26.15;;;23.80;;
2638;SDS011;1329;51.384;7.122;2022-07-23T08:25:16;26.05;;;23.65;;
2638;SDS011;1329;51.384;7.122;2022-07-23T08:27:49;27.83;;;25.50;;
2638;SDS011;1329;51.384;7.122;2022-07-23T08:30:18;28.27;;;25.73;;
2638;SDS011;1329;51.384;7.122;2022-07-23T08:32:51;27.83;;;25.63;;
2638;SDS011;1329;51.384;7.122;2022-07-23T08:35:28;27.40;;;25.13;;
2638;SDS011;1329;51.384;7.122;2022-07-23T08:37:57;28.52;;;26.23;;
2638;SDS011;1329;51.384;7.122;2022-07-23T08:40:27;28.92;;;26.63;;
2638;SDS011;1329;51.384;7.122;2022-07-23T08:42:57;27.90;;;25.50;;
2638;SDS011;1329;51.384;7.122;2022-07-23T08:45:39;25.50;;;23.48;;
2638;SDS011;1329;51.384;7.122;2022-07-23T08:48:14;25.35;;;23.33;;
2638;SDS011;1329;51.384;7.122;2022-07-23T08:50:46;24.20;;;22.40;;
2638;SDS011;1329;51.384;7.122;2022-07-23T08:53:16;23.60;;;21.67;;
2638;SDS011;1329;51.384;7.122;2022-07-23T08:55:49;25.10;;;23.00;;
2638;SDS011;1329;51.384;7.122;2022-07-23T08:58:18;24.20;;;22.25;;
2638;SDS011;1329;51.384;7.122;2022-07-23T09:00:47;24.77;;;22.77;;
2638;SDS011;1329;51.384;7.122;2022-07-23T09:03:17;23.45;;;21.52;;
2638;SDS011;1329;51.384;7.122;2022-07-23T09:05:49;23.05;;;21.08;;
2638;SDS011;1329;51.384;7.122;2022-07-23T09:08:19;22.05;;;20.20;;
2638;SDS011;1329;51.384;7.122;2022-07-23T09:10:49;21.88;;;19.98;;
2638;SDS011;1329;51.384;7.122;2022-07-23T09:13:35;22.70;;;20.80;;
2638;SDS011;1329;51.384;7.122;2022-07-23T09:16:08;21.67;;;19.98;;
2638;SDS011;1329;51.384;7.122;2022-07-23T09:18:41;19.60;;;18.10;;
2638;SDS011;1329;51.384;7.122;2022-07-23T09:21:19;17.75;;;16.35;;
2638;SDS011;1329;51.384;7.122;2022-07-23T09:23:51;17.85;;;16.45;;
2638;SDS011;1329;51.384;7.122;2022-07-23T09:26:33;17.10;;;15.80;;
2638;SDS011;1329;51.384;7.122;2022-07-23T09:29:11;14.52;;;13.43;;
2638;SDS011;1329;51.384;7.122;2022-07-23T09:31:48;14.63;;;13.55;;
2638;SDS011;1329;51.384;7.122;2022-07-23T09:34:25;14.00;;;12.90;;
2638;SDS011;1329;51.384;7.122;2022-07-23T09:36:56;13.65;;;12.65;;
2638;SDS011;1329;51.384;7.122;2022-07-23T09:39:41;12.93;;;11.93;;
2638;SDS011;1329;51.384;7.122;2022-07-23T09:42:23;11.70;;;10.73;;
2638;SDS011;1329;51.384;7.122;2022-07-23T09:44:57;11.40;;;10.50;;
2638;SDS011;1329;51.384;7.122;2022-07-23T09:47:33;10.80;;;9.90;;
2638;SDS011;1329;51.384;7.122;2022-07-23T09:50:07;10.45;;;9.68;;
2638;SDS011;1329;51.384;7.122;2022-07-23T09:52:42;10.35;;;9.55;;
2638;SDS011;1329;51.384;7.122;2022-07-23T09:55:15;9.98;;;9.18;;
2638;SDS011;1329;51.384;7.122;2022-07-23T09:57:53;9.95;;;9.15;;
2638;SDS011;1329;51.384;7.122;2022-07-23T10:00:26;11.15;;;10.23;;
2638;SDS011;1329;51.384;7.122;2022-07-23T10:02:54;9.95;;;9.20;;
2638;SDS011;1329;51.384;7.122;2022-07-23T10:05:24;9.05;;;8.40;;
2638;SDS011;1329;51.384;7.122;2022-07-23T10:10:47;9.32;;;8.63;;
2638;SDS011;1329;51.384;7.122;2022-07-23T10:13:25;9.15;;;8.30;;
2638;SDS011;1329;51.384;7.122;2022-07-23T10:16:07;8.60;;;7.90;;
2638;SDS011;1329;51.384;7.122;2022-07-23T10:18:39;7.28;;;6.70;;
2638;SDS011;1329;51.384;7.122;2022-07-23T10:21:09;6.70;;;6.10;;
2638;SDS011;1329;51.384;7.122;2022-07-23T10:23:39;7.85;;;7.05;;
2638;SDS011;1329;51.384;7.122;2022-07-23T10:26:34;8.65;;;6.63;;
2638;SDS011;1329;51.384;7.122;2022-07-23T10:29:18;6.78;;;6.20;;
2638;SDS011;1329;51.384;7.122;2022-07-23T10:32:19;6.57;;;6.15;;
2638;SDS011;1329;51.384;7.122;2022-07-23T10:35:03;6.30;;;5.80;;
2638;SDS011;1329;51.384;7.122;2022-07-23T10:37:47;6.72;;;6.10;;
2638;SDS011;1329;51.384;7.122;2022-07-23T10:40:27;6.10;;;5.55;;
2638;SDS011;1329;51.384;7.122;2022-07-23T10:42:59;6.10;;;5.60;;
2638;SDS011;1329;51.384;7.122;2022-07-23T10:45:28;6.20;;;5.60;;
2638;SDS011;1329;51.384;7.122;2022-07-23T10:48:14;6.53;;;5.93;;
2638;SDS011;1329;51.384;7.122;2022-07-23T10:50:43;7.82;;;6.78;;
2638;SDS011;1329;51.384;7.122;2022-07-23T10:53:56;4.90;;;4.50;;
2638;SDS011;1329;51.384;7.122;2022-07-23T11:02:45;3.75;;;3.45;;
2638;SDS011;1329;51.384;7.122;2022-07-23T11:05:14;4.15;;;3.85;;
2638;SDS011;1329;51.384;7.122;2022-07-23T11:10:48;3.78;;;3.47;;
2638;SDS011;1329;51.384;7.122;2022-07-23T11:13:29;3.72;;;3.35;;
2638;SDS011;1329;51.384;7.122;2022-07-23T11:16:04;4.13;;;3.75;;
2638;SDS011;1329;51.384;7.122;2022-07-23T11:19:02;3.20;;;3.00;;
2638;SDS011;1329;51.384;7.122;2022-07-23T11:21:41;3.53;;;3.22;;
2638;SDS011;1329;51.384;7.122;2022-07-23T11:24:16;3.40;;;3.10;;
2638;SDS011;1329;51.384;7.122;2022-07-23T11:26:58;3.38;;;3.10;;
2638;SDS011;1329;51.384;7.122;2022-07-23T11:32:32;3.33;;;3.00;;
2638;SDS011;1329;51.384;7.122;2022-07-23T11:35:17;2.92;;;2.72;;
2638;SDS011;1329;51.384;7.122;2022-07-23T11:37:47;3.03;;;2.80;;
2638;SDS011;1329;51.384;7.122;2022-07-23T11:40:20;2.53;;;2.33;;
2638;SDS011;1329;51.384;7.122;2022-07-23T11:42:51;3.38;;;3.08;;
2638;SDS011;1329;51.384;7.122;2022-07-23T11:45:22;3.15;;;2.95;;
2638;SDS011;1329;51.384;7.122;2022-07-23T11:47:51;3.38;;;3.08;;
2638;SDS011;1329;51.384;7.122;2022-07-23T11:50:18;3.33;;;3.03;;
2638;SDS011;1329;51.384;7.122;2022-07-23T11:52:49;3.10;;;2.90;;
2638;SDS011;1329;51.384;7.122;2022-07-23T11:55:17;331.98;;;71.03;;
2638;SDS011;1329;51.384;7.122;2022-07-23T11:57:45;36.05;;;13.35;;
2638;SDS011;1329;51.384;7.122;2022-07-23T12:00:14;69.40;;;22.70;;
2638;SDS011;1329;51.384;7.122;2022-07-23T12:02:49;27.27;;;10.10;;
2638;SDS011;1329;51.384;7.122;2022-07-23T12:05:20;4.05;;;3.50;;
2638;SDS011;1329;51.384;7.122;2022-07-23T12:07:52;3.40;;;2.72;;
2638;SDS011;1329;51.384;7.122;2022-07-23T12:10:25;55.78;;;12.88;;
2638;SDS011;1329;51.384;7.122;2022-07-23T12:13:01;5.28;;;3.40;;
2638;SDS011;1329;51.384;7.122;2022-07-23T12:15:32;14.30;;;5.28;;
2638;SDS011;1329;51.384;7.122;2022-07-23T12:18:14;11.38;;;3.58;;
2638;SDS011;1329;51.384;7.122;2022-07-23T12:20:44;4.22;;;2.28;;
2638;SDS011;1329;51.384;7.122;2022-07-23T12:23:17;2.78;;;2.58;;
2638;SDS011;1329;51.384;7.122;2022-07-23T12:25:50;2.60;;;2.40;;
2638;SDS011;1329;51.384;7.122;2022-07-23T12:28:28;3.05;;;2.53;;
2638;SDS011;1329;51.384;7.122;2022-07-23T12:31:10;2.42;;;2.20;;
2638;SDS011;1329;51.384;7.122;2022-07-23T12:33:40;2.50;;;2.30;;
2638;SDS011;1329;51.384;7.122;2022-07-23T12:36:11;2.45;;;2.25;;
2638;SDS011;1329;51.384;7.122;2022-07-23T12:38:43;2.97;;;2.40;;
2638;SDS011;1329;51.384;7.122;2022-07-23T12:41:17;2.80;;;2.30;;
2638;SDS011;1329;51.384;7.122;2022-07-23T12:43:48;2.58;;;2.38;;
2638;SDS011;1329;51.384;7.122;2022-07-23T12:46:16;2.10;;;2.00;;
2638;SDS011;1329;51.384;7.122;2022-07-23T12:48:50;2.85;;;2.65;;
2638;SDS011;1329;51.384;7.122;2022-07-23T12:51:21;2.45;;;2.28;;
2638;SDS011;1329;51.384;7.122;2022-07-23T12:54:04;2.20;;;2.05;;
2638;SDS011;1329;51.384;7.122;2022-07-23T12:56:34;2.40;;;2.20;;
2638;SDS011;1329;51.384;7.122;2022-07-23T12:59:07;2.85;;;2.40;;
2638;SDS011;1329;51.384;7.122;2022-07-23T13:01:53;2.88;;;2.60;;
2638;SDS011;1329;51.384;7.122;2022-07-23T13:04:26;2.47;;;2.28;;
2638;SDS011;1329;51.384;7.122;2022-07-23T13:06:54;2.33;;;2.13;;
2638;SDS011;1329;51.384;7.122;2022-07-23T13:09:26;2.28;;;2.05;;
2638;SDS011;1329;51.384;7.122;2022-07-23T13:11:58;2.42;;;2.22;;
2638;SDS011;1329;51.384;7.122;2022-07-23T13:14:32;2.30;;;2.20;;
2638;SDS011;1329;51.384;7.122;2022-07-23T13:17:03;2.60;;;2.33;;
2638;SDS011;1329;51.384;7.122;2022-07-23T13:19:31;2.50;;;2.30;;
2638;SDS011;1329;51.384;7.122;2022-07-23T13:22:09;2.45;;;2.25;;
2638;SDS011;1329;51.384;7.122;2022-07-23T13:24:43;2.30;;;2.15;;
2638;SDS011;1329;51.384;7.122;2022-07-23T13:27:17;2.45;;;2.17;;
2638;SDS011;1329;51.384;7.122;2022-07-23T13:29:57;2.13;;;1.92;;
2638;SDS011;1329;51.384;7.122;2022-07-23T13:32:28;2.15;;;2.03;;
2638;SDS011;1329;51.384;7.122;2022-07-23T13:35:02;2.38;;;2.17;;
2638;SDS011;1329;51.384;7.122;2022-07-23T13:37:40;2.70;;;2.50;;
2638;SDS011;1329;51.384;7.122;2022-07-23T13:40:26;7.07;;;2.30;;
2638;SDS011;1329;51.384;7.122;2022-07-23T13:43:00;2.95;;;2.20;;
2638;SDS011;1329;51.384;7.122;2022-07-23T13:45:34;2.22;;;2.10;;
2638;SDS011;1329;51.384;7.122;2022-07-23T13:48:19;2.30;;;2.10;;
2638;SDS011;1329;51.384;7.122;2022-07-23T13:50:50;2.72;;;2.10;;
2638;SDS011;1329;51.384;7.122;2022-07-23T13:53:26;2.10;;;2.00;;
2638;SDS011;1329;51.384;7.122;2022-07-23T13:55:57;2.30;;;2.20;;
2638;SDS011;1329;51.384;7.122;2022-07-23T13:58:31;2.10;;;2.00;;
2638;SDS011;1329;51.384;7.122;2022-07-23T14:01:07;2.50;;;2.30;;
2638;SDS011;1329;51.384;7.122;2022-07-23T14:03:56;2.55;;;2.15;;
2638;SDS011;1329;51.384;7.122;2022-07-23T14:06:39;2.60;;;2.40;;
2638;SDS011;1329;51.384;7.122;2022-07-23T14:09:18;2.60;;;2.40;;
2638;SDS011;1329;51.384;7.122;2022-07-23T14:11:49;2.60;;;2.45;;
2638;SDS011;1329;51.384;7.122;2022-07-23T14:14:36;2.67;;;2.40;;
2638;SDS011;1329;51.384;7.122;2022-07-23T14:17:15;2.70;;;2.50;;
2638;SDS011;1329;51.384;7.122;2022-07-23T14:19:58;2.45;;;2.25;;
2638;SDS011;1329;51.384;7.122;2022-07-23T14:22:49;2.83;;;2.20;;
2638;SDS011;1329;51.384;7.122;2022-07-23T14:25:37;2.13;;;2.00;;
2638;SDS011;1329;51.384;7.122;2022-07-23T14:28:11;1.95;;;1.85;;
2638;SDS011;1329;51.384;7.122;2022-07-23T14:30:41;2.40;;;2.30;;
2638;SDS011;1329;51.384;7.122;2022-07-23T14:33:29;3.38;;;2.25;;
2638;SDS011;1329;51.384;7.122;2022-07-23T14:36:08;2.25;;;2.05;;
2638;SDS011;1329;51.384;7.122;2022-07-23T14:38:53;2.72;;;2.30;;
2638;SDS011;1329;51.384;7.122;2022-07-23T14:41:24;2.42;;;2.05;;
2638;SDS011;1329;51.384;7.122;2022-07-23T14:43:55;2.60;;;2.40;;
2638;SDS011;1329;51.384;7.122;2022-07-23T14:46:26;2.65;;;2.45;;
2638;SDS011;1329;51.384;7.122;2022-07-23T14:52:14;2.80;;;2.55;;
2638;SDS011;1329;51.384;7.122;2022-07-23T14:54:46;2.97;;;2.65;;
2638;SDS011;1329;51.384;7.122;2022-07-23T14:57:17;2.72;;;2.50;;
2638;SDS011;1329;51.384;7.122;2022-07-23T14:59:54;2.78;;;2.58;;
2638;SDS011;1329;51.384;7.122;2022-07-23T15:02:35;2.65;;;2.45;;
2638;SDS011;1329;51.384;7.122;2022-07-23T15:05:22;2.72;;;2.53;;
2638;SDS011;1329;51.384;7.122;2022-07-23T15:08:02;2.60;;;2.40;;
2638;SDS011;1329;51.384;7.122;2022-07-23T15:10:40;2.55;;;2.40;;
2638;SDS011;1329;51.384;7.122;2022-07-23T15:13:27;3.08;;;2.60;;
2638;SDS011;1329;51.384;7.122;2022-07-23T15:16:11;2.97;;;2.78;;
2638;SDS011;1329;51.384;7.122;2022-07-23T15:18:40;2.75;;;2.55;;
2638;SDS011;1329;51.384;7.122;2022-07-23T15:21:25;3.00;;;2.60;;
2638;SDS011;1329;51.384;7.122;2022-07-23T15:24:20;2.60;;;2.40;;
2638;SDS011;1329;51.384;7.122;2022-07-23T15:26:57;3.88;;;2.40;;
2638;SDS011;1329;51.384;7.122;2022-07-23T15:29:35;2.70;;;2.50;;
2638;SDS011;1329;51.384;7.122;2022-07-23T15:32:12;2.33;;;2.20;;
2638;SDS011;1329;51.384;7.122;2022-07-23T15:34:52;2.80;;;2.60;;
2638;SDS011;1329;51.384;7.122;2022-07-23T15:37:36;2.60;;;2.40;;
2638;SDS011;1329;51.384;7.122;2022-07-23T15:40:19;2.70;;;2.50;;
2638;SDS011;1329;51.384;7.122;2022-07-23T15:43:04;2.70;;;2.50;;